createdAt,value
2018-08-11T00:00:31.394Z,4.73
2018-08-11T00:03:01.141Z,3.90
2018-08-11T00:05:30.938Z,3.50
2018-08-11T00:08:00.949Z,4.17
2018-08-11T00:10:30.709Z,3.93
2018-08-11T00:14:29.399Z,4.33
2018-08-11T00:16:59.392Z,4.10
2018-08-11T00:19:29.162Z,4.47
2018-08-11T00:21:58.923Z,4.27
2018-08-11T00:24:28.816Z,4.90
2018-08-11T00:26:58.673Z,3.80
2018-08-11T00:29:28.456Z,4.00
2018-08-11T00:32:01.692Z,4.13
2018-08-11T00:34:31.786Z,4.07
2018-08-11T00:37:03.346Z,3.70
2018-08-11T00:39:33.124Z,4.00
2018-08-11T00:42:03.031Z,4.43
2018-08-11T00:44:32.879Z,4.37
2018-08-11T00:47:03.027Z,5.20
2018-08-11T00:49:32.823Z,3.97
2018-08-11T00:52:02.832Z,3.80
2018-08-11T00:54:34.170Z,4.20
2018-08-11T00:57:04.223Z,4.03
2018-08-11T00:59:33.992Z,4.37
2018-08-11T01:02:04.000Z,4.20
2018-08-11T01:04:33.844Z,4.60
2018-08-11T01:07:03.563Z,4.27
2018-08-11T01:09:33.425Z,3.70
2018-08-11T01:12:03.220Z,4.10
2018-08-11T01:14:32.138Z,4.07
2018-08-11T01:17:03.283Z,4.20
2018-08-11T01:19:33.986Z,4.07
2018-08-11T01:22:03.951Z,5.00
2018-08-11T01:24:33.741Z,3.97
2018-08-11T01:27:04.515Z,4.27
2018-08-11T01:29:35.284Z,4.30
2018-08-11T01:32:07.005Z,4.27
2018-08-11T01:34:38.086Z,4.20
2018-08-11T01:37:09.261Z,4.10
2018-08-11T01:39:39.077Z,3.97
2018-08-11T01:42:08.876Z,4.23
2018-08-11T01:44:42.114Z,4.00
2018-08-11T01:47:13.030Z,4.10
2018-08-11T01:49:43.804Z,4.20
2018-08-11T01:52:13.906Z,4.00
2018-08-11T01:54:44.221Z,4.20
2018-08-11T01:57:13.983Z,4.37
2018-08-11T01:59:43.825Z,4.13
2018-08-11T02:02:13.725Z,4.17
2018-08-11T02:04:43.519Z,3.67
2018-08-11T02:07:13.392Z,4.10
2018-08-11T02:09:43.243Z,4.70
2018-08-11T02:12:13.131Z,4.03
2018-08-11T02:14:42.947Z,3.70
2018-08-11T02:17:15.666Z,3.70
2018-08-11T02:19:48.217Z,4.17
2018-08-11T02:22:18.071Z,3.97
2018-08-11T02:24:48.094Z,4.70
2018-08-11T02:27:28.801Z,4.50
2018-08-11T02:29:58.567Z,4.10
2018-08-11T02:32:28.342Z,4.20
2018-08-11T02:34:58.266Z,4.53
2018-08-11T02:37:28.199Z,4.73
2018-08-11T02:39:58.021Z,4.27
2018-08-11T02:42:27.781Z,4.60
2018-08-11T02:45:01.435Z,4.77
2018-08-11T02:47:32.454Z,4.43
2018-08-11T02:50:03.257Z,4.20
2018-08-11T02:52:33.089Z,5.80
2018-08-11T02:55:02.810Z,5.43
2018-08-11T02:57:33.028Z,6.03
2018-08-11T03:00:02.937Z,4.60
2018-08-11T03:02:32.735Z,4.53
2018-08-11T03:05:02.634Z,4.47
2018-08-11T03:07:34.631Z,4.50
2018-08-11T03:10:04.559Z,4.23
2018-08-11T03:12:34.382Z,4.17
2018-08-11T03:15:04.122Z,4.20
2018-08-11T03:17:34.537Z,4.10
2018-08-11T03:20:04.538Z,4.60
2018-08-11T03:22:35.221Z,4.60
2018-08-11T03:25:05.687Z,3.93
2018-08-11T03:27:35.712Z,4.37
2018-08-11T03:30:05.842Z,6.57
2018-08-11T03:32:37.760Z,14.83
2018-08-11T03:35:07.953Z,10.20
2018-08-11T03:37:40.606Z,6.50
2018-08-11T03:40:12.240Z,4.60
2018-08-11T03:42:42.661Z,4.60
2018-08-11T03:45:16.981Z,3.97
2018-08-11T03:47:46.855Z,5.10
2018-08-11T03:50:17.709Z,5.30
2018-08-11T03:52:49.474Z,4.20
2018-08-11T03:55:19.561Z,4.90
2018-08-11T03:57:49.577Z,4.77
2018-08-11T04:00:19.231Z,4.10
2018-08-11T04:02:49.058Z,4.33
2018-08-11T04:05:19.165Z,4.30
2018-08-11T04:07:49.125Z,4.40
2018-08-11T04:10:18.850Z,5.10
2018-08-11T04:12:50.027Z,4.30
2018-08-11T04:15:20.044Z,5.50
2018-08-11T04:17:50.318Z,7.30
2018-08-11T04:20:20.351Z,5.50
2018-08-11T04:22:50.679Z,5.40
2018-08-11T04:25:20.618Z,5.90
2018-08-11T04:27:50.435Z,5.80
2018-08-11T04:30:20.559Z,5.20
2018-08-11T04:32:50.663Z,5.87
2018-08-11T04:35:21.727Z,5.40
2018-08-11T04:37:53.079Z,4.30
2018-08-11T04:40:23.361Z,4.60
2018-08-11T04:42:53.458Z,4.97
2018-08-11T04:45:24.632Z,5.10
2018-08-11T04:48:03.338Z,4.50
2018-08-11T04:50:33.873Z,4.90
2018-08-11T04:53:04.593Z,4.80
2018-08-11T04:55:34.373Z,4.30
2018-08-11T04:58:04.162Z,4.53
2018-08-11T05:00:34.909Z,4.60
2018-08-11T05:03:04.957Z,4.10
2018-08-11T05:05:34.655Z,4.40
2018-08-11T05:08:04.283Z,4.53
2018-08-11T05:10:34.003Z,4.70
2018-08-11T05:13:03.685Z,4.33
2018-08-11T05:15:33.555Z,5.30
2018-08-11T05:18:03.366Z,4.60
2018-08-11T05:20:34.160Z,4.50
2018-08-11T05:23:06.551Z,4.70
2018-08-11T05:25:36.231Z,4.93
2018-08-11T05:28:06.106Z,4.50
2018-08-11T05:30:36.133Z,5.30
2018-08-11T05:33:06.112Z,4.50
2018-08-11T05:35:37.754Z,4.87
2018-08-11T05:38:07.546Z,4.37
2018-08-11T05:40:37.815Z,4.90
2018-08-11T05:43:08.085Z,4.67
2018-08-11T05:45:38.009Z,5.10
2018-08-11T05:48:07.840Z,4.77
2018-08-11T05:50:38.701Z,4.43
2018-08-11T05:53:08.445Z,5.10
2018-08-11T05:55:40.151Z,4.33
2018-08-11T05:58:09.966Z,4.37
2018-08-11T06:00:41.191Z,4.40
2018-08-11T06:03:11.400Z,4.67
2018-08-11T06:05:41.099Z,4.60
2018-08-11T06:08:10.802Z,4.97
2018-08-11T06:10:40.663Z,5.20
2018-08-11T06:13:10.453Z,4.43
2018-08-11T06:15:40.650Z,4.30
2018-08-11T06:18:10.919Z,4.70
2018-08-11T06:20:41.342Z,4.67
2018-08-11T06:23:13.549Z,4.90
2018-08-11T06:25:43.944Z,4.80
2018-08-11T06:28:14.151Z,4.70
2018-08-11T06:30:44.133Z,4.80
2018-08-11T06:33:14.189Z,5.33
2018-08-11T06:35:44.446Z,4.47
2018-08-11T06:38:14.843Z,4.67
2018-08-11T06:40:46.330Z,4.50
2018-08-11T06:43:16.971Z,4.53
2018-08-11T06:45:47.267Z,4.97
2018-08-11T06:48:17.622Z,4.47
2018-08-11T06:50:52.094Z,4.03
2018-08-11T06:53:23.875Z,4.30
2018-08-11T06:55:56.405Z,4.33
2018-08-11T06:58:26.811Z,4.90
2018-08-11T07:00:56.992Z,4.60
2018-08-11T07:03:27.334Z,4.00
2018-08-11T07:05:59.411Z,4.17
2018-08-11T07:08:31.139Z,4.10
2018-08-11T07:11:01.453Z,4.33
2018-08-11T07:13:31.557Z,5.13
2018-08-11T07:16:01.620Z,4.70
2018-08-11T07:18:31.332Z,4.13
2018-08-11T07:21:01.398Z,4.20
2018-08-11T07:23:31.141Z,4.43
2018-08-11T07:26:00.932Z,4.50
2018-08-11T07:28:34.145Z,4.00
2018-08-11T07:31:05.036Z,4.20
2018-08-11T07:33:34.904Z,4.60
2018-08-11T07:36:04.725Z,4.13
2018-08-11T07:38:34.535Z,4.27
2018-08-11T07:41:04.750Z,4.10
2018-08-11T07:43:35.495Z,4.40
2018-08-11T07:46:07.120Z,4.93
2018-08-11T07:48:38.692Z,4.47
2018-08-11T07:51:09.438Z,5.03
2018-08-11T07:53:39.628Z,4.93
2018-08-11T07:56:09.985Z,4.63
2018-08-11T07:58:40.320Z,5.27
2018-08-11T08:01:11.106Z,4.90
2018-08-11T08:03:41.583Z,4.00
2018-08-11T08:06:11.515Z,4.13
2018-08-11T08:08:41.215Z,4.63
2018-08-11T08:11:10.966Z,5.70
2018-08-11T08:13:40.749Z,4.80
2018-08-11T08:16:10.559Z,5.00
2018-08-11T08:18:41.090Z,4.87
2018-08-11T08:21:10.958Z,4.77
2018-08-11T08:23:40.797Z,4.97
2018-08-11T08:26:10.744Z,4.43
2018-08-11T08:28:40.668Z,4.23
2018-08-11T08:31:11.282Z,4.40
2018-08-11T08:33:43.600Z,4.70
2018-08-11T08:36:13.457Z,4.73
2018-08-11T08:38:43.656Z,5.00
2018-08-11T08:41:14.109Z,4.80
2018-08-11T08:43:45.742Z,4.33
2018-08-11T08:46:16.007Z,4.40
2018-08-11T08:48:46.366Z,4.93
2018-08-11T08:51:17.331Z,4.60
2018-08-11T08:53:48.175Z,4.93
2018-08-11T08:56:18.709Z,4.90
2018-08-11T08:58:53.142Z,4.70
2018-08-11T09:01:23.391Z,5.10
2018-08-11T09:03:54.537Z,5.47
2018-08-11T09:06:26.537Z,4.90
2018-08-11T09:08:56.857Z,4.73
2018-08-11T09:11:28.070Z,4.80
2018-08-11T09:13:58.566Z,5.40
2018-08-11T09:16:28.905Z,4.83
2018-08-11T09:18:59.157Z,4.57
2018-08-11T09:21:39.374Z,4.67
2018-08-11T09:24:18.485Z,4.60
2018-08-11T09:26:48.144Z,5.17
2018-08-11T09:29:17.953Z,4.37
2018-08-11T09:31:47.760Z,4.43
2018-08-11T09:34:17.439Z,4.50
2018-08-11T09:36:47.282Z,4.60
2018-08-11T09:39:17.013Z,4.93
2018-08-11T09:41:47.083Z,4.67
2018-08-11T09:44:16.855Z,4.47
2018-08-11T09:46:46.556Z,4.90
2018-08-11T09:49:16.423Z,4.00
2018-08-11T09:51:46.290Z,4.60
2018-08-11T09:54:19.920Z,4.80
2018-08-11T09:56:50.739Z,4.87
2018-08-11T09:59:20.432Z,4.43
2018-08-11T10:01:55.789Z,4.43
2018-08-11T10:04:25.554Z,4.20
2018-08-11T10:06:56.184Z,4.47
2018-08-11T10:09:26.472Z,5.10
2018-08-11T10:11:56.246Z,4.77
2018-08-11T10:14:26.117Z,4.20
2018-08-11T10:16:55.952Z,4.30
2018-08-11T10:19:27.507Z,4.97
2018-08-11T10:21:57.255Z,4.90
2018-08-11T10:24:26.966Z,4.90
2018-08-11T10:26:57.316Z,5.13
2018-08-11T10:29:31.782Z,4.80
2018-08-11T10:32:01.528Z,4.80
2018-08-11T10:34:31.953Z,4.87
2018-08-11T10:37:01.777Z,4.90
2018-08-11T10:39:31.672Z,5.13
2018-08-11T10:42:01.617Z,4.70
2018-08-11T10:44:31.315Z,4.97
2018-08-11T10:47:01.755Z,4.80
2018-08-11T10:49:34.711Z,4.40
2018-08-11T10:52:04.713Z,4.23
2018-08-11T10:54:34.485Z,5.40
2018-08-11T10:57:05.786Z,4.87
2018-08-11T10:59:35.690Z,5.07
2018-08-11T11:02:08.953Z,5.60
2018-08-11T11:04:41.210Z,5.33
2018-08-11T11:07:11.355Z,5.97
2018-08-11T11:10:00.226Z,4.83
2018-08-11T11:12:30.119Z,4.80
2018-08-11T11:14:59.859Z,5.23
2018-08-11T11:17:30.000Z,5.60
2018-08-11T11:20:00.114Z,5.23
2018-08-11T11:22:29.969Z,5.67
2018-08-11T11:24:59.818Z,5.37
2018-08-11T11:27:29.459Z,5.80
2018-08-11T11:30:00.213Z,5.50
2018-08-11T11:32:29.967Z,5.17
2018-08-11T11:35:00.195Z,5.10
2018-08-11T11:37:30.970Z,5.37
2018-08-11T11:40:00.853Z,5.53
2018-08-11T11:42:30.510Z,5.07
2018-08-11T11:45:00.214Z,5.70
2018-08-11T11:47:29.981Z,4.90
2018-08-11T11:50:00.724Z,4.70
2018-08-11T11:52:30.742Z,5.07
2018-08-11T11:55:00.622Z,4.83
2018-08-11T11:57:30.332Z,5.13
2018-08-11T12:00:00.176Z,5.20
2018-08-11T12:02:31.676Z,5.63
2018-08-11T12:05:02.397Z,6.00
2018-08-11T12:07:32.275Z,4.67
2018-08-11T12:10:02.168Z,5.47
2018-08-11T12:12:33.769Z,4.90
2018-08-11T12:15:05.114Z,5.27
2018-08-11T12:17:34.887Z,5.50
2018-08-11T12:20:05.733Z,4.90
2018-08-11T12:22:36.392Z,5.07
2018-08-11T12:25:06.905Z,5.00
2018-08-11T12:27:37.017Z,4.87
2018-08-11T12:30:10.391Z,4.87
2018-08-11T12:32:41.766Z,4.97
2018-08-11T12:35:11.580Z,5.20
2018-08-11T12:37:43.018Z,5.03
2018-08-11T12:40:12.791Z,5.70
2018-08-11T12:42:42.575Z,5.70
2018-08-11T12:45:13.328Z,5.67
2018-08-11T12:50:19.801Z,5.03
2018-08-11T12:52:51.855Z,5.63
2018-08-11T12:55:22.550Z,4.80
2018-08-11T12:57:52.336Z,4.50
2018-08-11T13:00:22.820Z,5.37
2018-08-11T13:02:52.639Z,5.37
2018-08-11T13:05:22.478Z,5.50
2018-08-11T13:07:52.289Z,5.67
2018-08-11T13:10:22.170Z,5.50
2018-08-11T13:12:51.956Z,4.70
2018-08-11T13:15:23.204Z,5.20
2018-08-11T13:17:53.041Z,4.87
2018-08-11T13:20:22.844Z,5.57
2018-08-11T13:22:52.869Z,5.43
2018-08-11T13:25:22.704Z,5.50
2018-08-11T13:27:52.325Z,4.60
2018-08-11T13:30:22.043Z,5.27
2018-08-11T13:32:51.780Z,5.20
2018-08-11T13:35:23.359Z,5.17
2018-08-11T13:37:53.317Z,4.50
2018-08-11T13:40:23.148Z,4.73
2018-08-11T13:42:52.994Z,5.30
2018-08-11T13:45:22.902Z,4.83
2018-08-11T13:47:53.180Z,4.73
2018-08-11T13:50:25.626Z,5.07
2018-08-11T13:52:55.576Z,5.30
2018-08-11T13:55:25.428Z,5.10
2018-08-11T13:57:55.361Z,5.23
2018-08-11T14:00:29.268Z,5.17
2018-08-11T14:02:59.960Z,5.10
2018-08-11T14:05:31.271Z,4.63
2018-08-11T14:08:01.305Z,4.60
2018-08-11T14:10:31.825Z,5.50
2018-08-11T14:13:03.882Z,5.30
2018-08-11T14:15:33.755Z,5.30
2018-08-11T14:18:06.502Z,5.50
2018-08-11T14:20:38.460Z,4.90
2018-08-11T14:23:09.375Z,5.90
2018-08-11T14:25:39.555Z,5.23
2018-08-11T14:28:09.890Z,5.30
2018-08-11T14:30:40.117Z,6.07
2018-08-11T14:33:10.275Z,5.57
2018-08-11T14:35:41.505Z,5.30
2018-08-11T14:38:12.499Z,5.10
2018-08-11T14:40:43.628Z,5.40
2018-08-11T14:43:13.985Z,5.10
2018-08-11T14:45:45.396Z,5.60
2018-08-11T14:48:15.514Z,5.30
2018-08-11T14:50:45.905Z,5.43
2018-08-11T14:53:16.228Z,5.70
2018-08-11T14:55:47.243Z,6.10
2018-08-11T14:58:17.551Z,5.30
2018-08-11T15:00:47.724Z,4.67
2018-08-11T15:03:17.908Z,5.10
2018-08-11T15:05:49.399Z,5.30
2018-08-11T15:08:19.603Z,5.23
2018-08-11T15:10:49.873Z,5.97
2018-08-11T15:13:19.930Z,4.87
2018-08-11T15:15:50.458Z,4.70
2018-08-11T15:18:20.568Z,5.33
2018-08-11T15:20:51.004Z,5.33
2018-08-11T15:23:21.435Z,6.03
2018-08-11T15:25:51.715Z,5.53
2018-08-11T15:28:22.841Z,5.10
2018-08-11T15:30:54.171Z,5.27
2018-08-11T15:33:24.503Z,5.73
2018-08-11T15:35:54.587Z,5.30
2018-08-11T15:38:25.208Z,5.70
2018-08-11T15:40:55.232Z,5.43
2018-08-11T15:43:25.526Z,6.00
2018-08-11T15:45:55.573Z,6.00
2018-08-11T15:48:26.896Z,6.43
2018-08-11T15:51:02.937Z,5.60
2018-08-11T15:53:33.382Z,5.70
2018-08-11T15:56:04.216Z,6.60
2018-08-11T15:58:42.297Z,5.77
2018-08-11T16:01:17.465Z,5.30
2018-08-11T16:03:49.685Z,6.33
2018-08-11T16:06:21.130Z,5.70
2018-08-11T16:08:51.968Z,6.23
2018-08-11T16:11:22.901Z,5.60
2018-08-11T16:13:52.834Z,5.40
2018-08-11T16:16:27.092Z,5.50
2018-08-11T16:19:03.556Z,5.67
2018-08-11T16:21:33.429Z,5.90
2018-08-11T16:24:04.220Z,5.63
2018-08-11T16:26:44.958Z,6.20
2018-08-11T16:29:15.853Z,5.30
2018-08-11T16:34:20.613Z,5.07
2018-08-11T16:36:50.475Z,6.17
2018-08-11T16:39:20.504Z,5.93
2018-08-11T16:41:50.363Z,6.63
2018-08-11T16:44:40.883Z,5.07
2018-08-11T16:47:17.958Z,5.57
2018-08-11T16:49:49.244Z,5.70
2018-08-11T16:52:21.096Z,6.33
2018-08-11T16:54:50.844Z,5.67
2018-08-11T16:57:20.678Z,6.10
2018-08-11T16:59:50.957Z,5.17
2018-08-11T17:02:20.858Z,5.47
2018-08-11T17:04:50.742Z,6.40
2018-08-11T17:07:20.688Z,5.97
2018-08-11T17:09:50.669Z,5.70
2018-08-11T17:12:20.911Z,6.00
2018-08-11T17:14:51.429Z,5.60
2018-08-11T17:17:21.252Z,5.23
2018-08-11T17:19:50.992Z,5.60
2018-08-11T17:22:21.448Z,5.80
2018-08-11T17:24:51.168Z,6.20
2018-08-11T17:27:21.022Z,5.00
2018-08-11T17:29:50.995Z,5.20
2018-08-11T17:32:20.911Z,5.30
2018-08-11T17:34:50.714Z,5.30
2018-08-11T17:37:21.138Z,5.63
2018-08-11T17:39:50.882Z,5.97
2018-08-11T17:42:20.671Z,5.70
2018-08-11T17:44:50.427Z,6.50
2018-08-11T17:47:20.176Z,5.87
2018-08-11T17:49:49.981Z,6.10
2018-08-11T17:52:19.757Z,5.40
2018-08-11T17:54:49.550Z,5.67
2018-08-11T17:57:20.105Z,5.93
2018-08-11T17:59:49.800Z,8.93
2018-08-11T18:02:21.305Z,21.63
2018-08-11T18:04:52.244Z,9.13
2018-08-11T18:07:22.070Z,11.17
2018-08-11T18:09:52.319Z,6.40
2018-08-11T18:12:22.765Z,6.37
2018-08-11T18:14:52.594Z,5.97
2018-08-11T18:17:22.461Z,6.77
2018-08-11T18:19:53.399Z,7.00
2018-08-11T18:22:23.149Z,6.20
2018-08-11T18:24:53.811Z,6.23
2018-08-11T18:27:23.780Z,6.80
2018-08-11T18:29:53.986Z,7.10
2018-08-11T18:32:23.782Z,6.90
2018-08-11T18:34:53.574Z,6.90
2018-08-11T18:37:23.833Z,7.80
2018-08-11T18:39:53.553Z,6.97
2018-08-11T18:42:24.152Z,7.13
2018-08-11T18:44:53.955Z,6.73
2018-08-11T18:47:23.935Z,6.67
2018-08-11T18:49:53.799Z,7.20
2018-08-11T18:52:24.182Z,7.50
2018-08-11T18:54:54.231Z,8.00
2018-08-11T18:57:24.872Z,7.20
2018-08-11T18:59:56.679Z,6.67
2018-08-11T19:02:26.761Z,6.27
2018-08-11T19:04:57.996Z,7.07
2018-08-11T19:07:27.831Z,6.10
2018-08-11T19:09:58.521Z,6.80
2018-08-11T19:12:28.413Z,6.80
2018-08-11T19:14:59.074Z,6.87
2018-08-11T19:17:28.950Z,6.47
2018-08-11T19:20:02.174Z,6.20
2018-08-11T19:22:32.027Z,6.87
2018-08-11T19:25:04.900Z,6.47
2018-08-11T19:27:37.679Z,6.50
2018-08-11T19:30:10.538Z,7.47
2018-08-11T19:32:41.029Z,5.90
2018-08-11T19:35:13.464Z,5.60
2018-08-11T19:37:44.240Z,6.70
2018-08-11T19:40:14.077Z,6.90
2018-08-11T19:42:44.542Z,6.33
2018-08-11T19:45:14.285Z,7.13
2018-08-11T19:47:44.145Z,7.20
2018-08-11T19:50:14.234Z,7.07
2018-08-11T19:52:44.859Z,6.77
2018-08-11T19:55:17.940Z,6.07
2018-08-11T19:57:51.080Z,6.00
2018-08-11T20:00:21.013Z,5.90
2018-08-11T20:02:52.878Z,5.93
2018-08-11T20:05:23.569Z,6.27
2018-08-11T20:07:56.088Z,5.30
2018-08-11T20:10:28.239Z,5.50
2018-08-11T20:12:57.975Z,5.30
2018-08-11T20:15:27.794Z,5.20
2018-08-11T20:17:57.591Z,5.30
2018-08-11T20:20:28.063Z,6.17
2018-08-11T20:22:59.772Z,5.70
2018-08-11T20:25:32.376Z,6.43
2018-08-11T20:28:02.969Z,5.37
2018-08-11T20:30:34.817Z,5.77
2018-08-11T20:33:07.845Z,5.60
2018-08-11T20:35:37.665Z,5.80
2018-08-11T20:38:10.997Z,5.63
2018-08-11T20:40:40.901Z,6.37
2018-08-11T20:43:11.942Z,5.10
2018-08-11T20:45:43.193Z,6.10
2018-08-11T20:48:15.887Z,5.70
2018-08-11T20:50:45.671Z,5.70
2018-08-11T20:53:15.508Z,6.13
2018-08-11T20:55:45.783Z,6.13
2018-08-11T20:58:15.765Z,5.93
2018-08-11T21:00:46.007Z,5.87
2018-08-11T21:03:15.796Z,5.97
2018-08-11T21:05:46.785Z,6.27
2018-08-11T21:08:17.516Z,5.60
2018-08-11T21:10:47.311Z,5.63
2018-08-11T21:13:17.036Z,5.67
2018-08-11T21:15:46.830Z,5.87
2018-08-11T21:18:16.677Z,5.57
2018-08-11T21:20:46.476Z,5.00
2018-08-11T21:23:16.412Z,5.80
2018-08-11T21:25:46.374Z,5.87
2018-08-11T21:28:16.601Z,5.53
2018-08-11T21:30:46.651Z,5.80
2018-08-11T21:33:16.521Z,6.20
2018-08-11T21:35:46.387Z,5.93
2018-08-11T21:38:16.214Z,6.20
2018-08-11T21:40:47.494Z,6.07
2018-08-11T21:43:17.469Z,5.60
2018-08-11T21:45:47.209Z,6.00
2018-08-11T21:48:17.018Z,5.67
2018-08-11T21:50:46.715Z,5.80
2018-08-11T21:53:17.951Z,5.40
2018-08-11T21:55:47.670Z,5.97
2018-08-11T21:58:17.451Z,5.47
2018-08-11T22:00:59.638Z,5.47
2018-08-11T22:03:31.118Z,5.63
2018-08-11T22:06:08.661Z,5.97
2018-08-11T22:08:38.715Z,5.43
2018-08-11T22:11:08.617Z,6.30
2018-08-11T22:13:39.508Z,5.60
2018-08-11T22:16:10.518Z,6.00
2018-08-11T22:18:40.148Z,5.77
2018-08-11T22:21:09.968Z,6.20
2018-08-11T22:23:39.699Z,5.50
2018-08-11T22:26:09.627Z,6.37
2018-08-11T22:28:41.622Z,6.17
2018-08-11T22:31:11.531Z,5.67
2018-08-11T22:33:42.199Z,5.80
2018-08-11T22:36:12.657Z,5.80
2018-08-11T22:38:43.746Z,6.40
2018-08-11T22:41:13.451Z,5.63
2018-08-11T22:43:43.185Z,5.93
2018-08-11T22:46:13.056Z,6.77
2018-08-11T22:48:43.161Z,5.83
2018-08-11T22:51:12.964Z,5.80
2018-08-11T22:53:44.061Z,6.43
2018-08-11T22:56:14.132Z,6.03
2018-08-11T22:58:44.842Z,6.23
2018-08-11T23:01:14.805Z,6.00
2018-08-11T23:03:53.165Z,5.93
2018-08-11T23:06:23.308Z,5.80
2018-08-11T23:08:54.685Z,5.87
2018-08-11T23:11:24.569Z,6.13
2018-08-11T23:13:57.230Z,5.50
2018-08-11T23:16:27.526Z,5.70
2018-08-11T23:18:58.583Z,5.30
2018-08-11T23:21:28.296Z,5.97
2018-08-11T23:23:58.081Z,5.17
2018-08-11T23:26:27.915Z,6.00
2018-08-11T23:28:57.629Z,5.87
2018-08-11T23:31:27.365Z,5.83
2018-08-11T23:33:57.028Z,6.00
2018-08-11T23:36:26.765Z,5.53
2018-08-11T23:38:56.483Z,5.60
2018-08-11T23:41:26.288Z,6.10
2018-08-11T23:43:56.185Z,5.33
2018-08-11T23:46:25.883Z,5.23
2018-08-11T23:48:55.903Z,5.10
2018-08-11T23:51:25.834Z,5.53
2018-08-11T23:53:56.467Z,5.63
2018-08-11T23:56:26.188Z,5.33
2018-08-11T23:58:55.931Z,5.80
